KPPO

La Porte Municipal Airport

La Porte, Indiana, USA
METAR KPPO 190635Z AUTO 22008KT 10SM SCT110 M05/M09 A3001 RMK AO2 T10511087
Observed Flight Rules
Jan-19 @ 06:35 UTC (31 minutes ago) Visual Flight Rules
Wind Visibility Clouds
220° at 8 knots 10 miles
  • Scattered at 11,000' AGL
Temperatures Readings
Current -5°C / 23°F
Dewpoint -9°C / 16°F
Humidity 74%
Altimeter 30.01" Hg
Pressure 1016 hPa
Elevation 248
METAR KPPO 190635Z AUTO 22008KT 10SM SCT110 M05/M09 A3001 RMK AO2 T10511087
Observed Flight Rules
Jan-19 @ 06:35 UTC
(31 minutes ago)
VFR
Wind Visibility
220° at 8 knots 10 miles
Clouds
  • Scattered at 11,000' AGL
Temperature Dewpoint
-5°C / 23°F -9°C / 16°F
Humidity Altimeter Pressure
74% 30.01" Hg 1016 hPa